Boyd, Minnesota
Current Conditions -  °F | °C
As of 1:54 PM on Sunday 21 Dec 2014 (Local Time) from KMVE Reporting Station
Haze Haze  
Wind Chill: 28°   Ceiling: 500
Heat Index: 36°   Visibility: 5mi
Dew Point: 36°   Wind: 12mph
Humidity: 100%   Direction: 190°S
Pressure: 29.65"   Gusts: 16mph
Location:  44.85°N, 95.9°W
Report Text: KMVE 211954Z AUTO 19010G14KT 5SM BR OVC005 02/02 A2965 RMK AO2
Loading
Personal Weather Stations






























Interactive Weather Map New forecast layout! Learn more

10-Day Weather Forecast

Advertisements
Track Severe Weather on mobile